Time;durP1;ratioP1;P1;durP2;ratioP2;P2;SDS_P1;SDS_P2;PMS_P1;PMS_P2;Temp;Humidity;BMP_temperature;BMP_pressure;BME280_temperature;BME280_humidity;BME280_pressure;Samples;Min_cycle;Max_cycle;Signal;HPM_P1;HPM_P2
2022/06/16 00:01:57;;;;;;;6.03;3.10;;;;;;;14.79;60.32;100634.44;5062640;28;20514;-65
2022/06/16 00:04:25;;;;;;;6.20;3.17;;;;;;;14.79;60.58;100638.00;5064261;28;20433;-65
2022/06/16 00:06:53;;;;;;;4.77;3.07;;;;;;;14.83;60.66;100636.66;5062409;28;21013;-65
2022/06/16 00:09:20;;;;;;;3.40;3.10;;;;;;;14.82;60.65;100634.13;5062118;28;20519;-65
2022/06/16 00:11:47;;;;;;;3.00;2.70;;;;;;;14.91;60.04;100643.94;5062855;28;20476;-65
2022/06/16 00:14:14;;;;;;;3.50;2.67;;;;;;;14.90;59.65;100644.94;5063677;28;20479;-66
2022/06/16 00:16:43;;;;;;;9.93;3.33;;;;;;;14.91;59.77;100657.38;5061862;28;20488;-65
2022/06/16 00:19:09;;;;;;;4.70;3.00;;;;;;;14.86;60.08;100665.97;5062349;28;20526;-66
2022/06/16 00:21:36;;;;;;;4.97;3.30;;;;;;;14.86;59.40;100641.72;5062485;28;20485;-66
2022/06/16 00:24:04;;;;;;;5.50;3.77;;;;;;;14.87;59.17;100608.41;5061815;28;20511;-67
2022/06/16 00:26:31;;;;;;;5.23;3.63;;;;;;;14.89;59.09;100610.94;5062323;28;20528;-67
2022/06/16 00:28:57;;;;;;;5.60;3.43;;;;;;;14.96;59.58;100628.13;5062489;28;20510;-66
2022/06/16 00:31:24;;;;;;;4.10;2.80;;;;;;;14.94;59.90;100632.00;5061910;28;20483;-67
2022/06/16 00:33:53;;;;;;;6.73;3.40;;;;;;;14.89;59.92;100635.16;5063193;28;20482;-68
2022/06/16 00:36:20;;;;;;;6.00;3.40;;;;;;;14.81;59.80;100621.69;5062467;28;20519;-67
2022/06/16 00:38:47;;;;;;;5.20;3.20;;;;;;;14.87;59.35;100596.81;5061679;28;21016;-67
2022/06/16 00:41:14;;;;;;;10.63;3.67;;;;;;;14.67;59.93;100594.34;5061578;28;20460;-67
2022/06/16 00:43:41;;;;;;;5.27;3.53;;;;;;;14.97;59.32;100600.22;5062669;28;20453;-66
2022/06/16 00:46:12;;;;;;;4.60;3.30;;;;;;;15.04;59.62;100609.34;5060763;28;20461;-66
2022/06/16 00:48:43;;;;;;;6.20;3.03;;;;;;;15.11;59.36;100628.41;5062764;28;21112;-66
2022/06/16 00:51:15;;;;;;;4.77;3.40;;;;;;;15.04;59.41;100611.19;5061783;28;20468;-67
2022/06/16 00:53:42;;;;;;;6.33;3.43;;;;;;;15.01;59.86;100622.28;5061987;28;20449;-65
2022/06/16 00:56:12;;;;;;;5.70;3.67;;;;;;;14.93;59.92;100623.09;5061850;28;20538;-66
2022/06/16 00:58:42;;;;;;;9.00;3.40;;;;;;;14.92;59.83;100609.78;5062687;28;20457;-65
2022/06/16 01:01:10;;;;;;;5.93;3.90;;;;;;;14.93;59.77;100631.19;5061622;28;20468;-66
2022/06/16 01:06:26;;;;;;;7.47;4.30;;;;;;;14.73;60.28;100613.56;5061961;28;20522;-66
2022/06/16 01:08:56;;;;;;;6.20;3.90;;;;;;;14.80;60.29;100617.28;5060674;28;20563;-66
2022/06/16 01:14:21;;;;;;;7.47;3.57;;;;;;;14.40;62.04;100607.91;5062244;28;20412;-68
2022/06/16 01:16:49;;;;;;;5.00;3.40;;;;;;;14.28;62.12;100594.69;5061154;28;20518;-67
2022/06/16 01:19:31;;;;;;;4.50;3.23;;;;;;;14.31;61.81;100599.78;5061720;28;20489;-67
2022/06/16 01:22:02;;;;;;;9.20;3.73;;;;;;;14.36;61.78;100601.16;5060880;28;20503;-67
2022/06/16 01:24:55;;;;;;;6.63;4.07;;;;;;;14.44;61.67;100609.28;5061286;28;20484;-67
2022/06/16 01:27:48;;;;;;;7.73;3.70;;;;;;;14.36;61.55;100620.84;5061094;28;20483;-67
2022/06/16 01:30:18;;;;;;;5.93;3.70;;;;;;;14.39;61.62;100616.97;5045376;28;20550;-68
2022/06/16 01:32:51;;;;;;;6.10;3.20;;;;;;;14.40;61.24;100618.69;5062073;28;20445;-67
2022/06/16 01:35:41;;;;;;;5.20;3.83;;;;;;;14.38;61.81;100612.63;5060962;28;20440;-67
2022/06/16 01:38:14;;;;;;;6.10;3.60;;;;;;;14.36;61.54;100615.44;5060788;28;20445;-67
2022/06/16 01:40:45;;;;;;;6.10;3.10;;;;;;;14.36;61.75;100611.94;5061280;28;20507;-67
2022/06/16 01:43:16;;;;;;;5.73;3.67;;;;;;;14.32;62.08;100623.00;5061107;28;20433;-66
2022/06/16 01:45:48;;;;;;;4.47;3.60;;;;;;;14.32;62.35;100623.00;5060318;28;20548;-67
2022/06/16 01:48:17;;;;;;;4.40;3.67;;;;;;;14.28;62.05;100632.34;5061496;28;20441;-67
2022/06/16 01:50:48;;;;;;;4.83;3.50;;;;;;;14.44;61.69;100636.19;5060754;28;20511;-67
2022/06/16 01:53:17;;;;;;;6.60;3.90;;;;;;;14.45;61.73;100638.72;5060830;28;20448;-67
2022/06/16 01:55:49;;;;;;;4.30;3.20;;;;;;;14.38;61.66;100636.81;5060939;28;20468;-65
2022/06/16 01:58:18;;;;;;;6.00;3.53;;;;;;;14.43;61.69;100637.19;5056675;28;20441;-66
2022/06/16 02:00:47;;;;;;;4.63;4.03;;;;;;;14.21;62.02;100620.53;5060443;28;21005;-66
2022/06/16 02:03:19;;;;;;;6.87;3.40;;;;;;;14.22;62.18;100618.72;5060432;28;20509;-67
2022/06/16 02:05:48;;;;;;;4.47;4.07;;;;;;;14.28;62.26;100628.81;5060338;28;20488;-66
2022/06/16 02:08:18;;;;;;;4.60;3.60;;;;;;;14.41;61.61;100617.66;5060226;28;20513;-67
2022/06/16 02:10:47;;;;;;;6.33;3.83;;;;;;;14.37;61.76;100617.13;5060379;28;20495;-67
2022/06/16 02:13:19;;;;;;;5.07;3.40;;;;;;;14.25;62.42;100618.38;5061004;28;20444;-67
2022/06/16 02:15:52;;;;;;;5.40;3.10;;;;;;;14.17;62.67;100611.09;5060165;28;20472;-67
2022/06/16 02:18:22;;;;;;;6.77;3.47;;;;;;;14.21;62.83;100612.47;5061122;28;20926;-67
2022/06/16 02:20:53;;;;;;;6.90;4.00;;;;;;;14.18;62.98;100626.22;5060497;28;20558;-67
2022/06/16 02:23:21;;;;;;;6.73;3.20;;;;;;;14.22;63.16;100630.31;5060128;28;20492;-67
2022/06/16 02:25:49;;;;;;;6.90;3.40;;;;;;;14.27;62.70;100632.53;5060328;28;20488;-65
2022/06/16 02:28:16;;;;;;;9.90;3.67;;;;;;;14.18;63.46;100630.75;5060428;28;20471;-66
2022/06/16 02:30:56;;;;;;;6.53;3.47;;;;;;;14.10;63.80;100623.47;5059652;28;20526;-66
2022/06/16 02:33:27;;;;;;;4.10;3.13;;;;;;;14.08;63.89;100623.63;5060584;28;20480;-66
2022/06/16 02:36:03;;;;;;;5.50;3.43;;;;;;;14.03;63.96;100630.47;5059149;28;20971;-67
2022/06/16 02:38:42;;;;;;;7.40;3.47;;;;;;;13.94;64.46;100625.00;5059815;28;20460;-65
2022/06/16 02:41:16;;;;;;;4.33;3.37;;;;;;;13.90;64.43;100622.78;5059603;28;20502;-65
2022/06/16 02:43:50;;;;;;;6.03;3.37;;;;;;;13.89;64.76;100616.56;5060352;28;20445;-66
2022/06/16 02:46:26;;;;;;;8.97;3.73;;;;;;;13.93;64.48;100611.72;5058456;28;20492;-65
2022/06/16 02:49:00;;;;;;;3.70;2.90;;;;;;;13.69;64.85;100604.25;5059911;28;20484;-65
2022/06/16 02:51:30;;;;;;;4.50;3.63;;;;;;;13.69;65.10;100613.16;5059727;28;20491;-66
2022/06/16 02:54:03;;;;;;;6.47;3.63;;;;;;;13.74;65.20;100620.78;5059253;28;20476;-65
2022/06/16 02:56:35;;;;;;;6.23;3.93;;;;;;;13.55;65.74;100627.94;5059293;28;20479;-66
2022/06/16 02:59:05;;;;;;;4.43;4.03;;;;;;;13.47;66.35;100622.50;5060211;28;20448;-66
2022/06/16 03:01:34;;;;;;;4.77;4.03;;;;;;;13.43;66.22;100618.41;5059306;28;20464;-65
2022/06/16 03:04:02;;;;;;;6.70;4.47;;;;;;;13.40;66.76;100626.75;5059498;28;20461;-66
2022/06/16 03:06:28;;;;;;;5.93;3.90;;;;;;;13.45;66.34;100626.31;5059220;28;20507;-66
2022/06/16 03:08:55;;;;;;;7.90;3.80;;;;;;;13.46;66.37;100633.41;5058826;28;20485;-66
2022/06/16 03:11:21;;;;;;;7.80;3.97;;;;;;;13.30;66.84;100629.47;5059771;28;20493;-65
2022/06/16 03:13:48;;;;;;;5.63;3.53;;;;;;;13.28;67.37;100623.44;5060125;28;20436;-66
2022/06/16 03:16:15;;;;;;;5.93;4.43;;;;;;;13.31;67.35;100635.69;5059060;28;20483;-66
2022/06/16 03:18:43;;;;;;;5.63;4.50;;;;;;;13.39;67.39;100637.69;5059585;28;20481;-67
2022/06/16 03:21:09;;;;;;;6.30;4.67;;;;;;;13.24;67.47;100630.06;5059516;28;20499;-68
2022/06/16 03:23:36;;;;;;;7.67;5.10;;;;;;;13.32;67.61;100619.47;5058987;28;20534;-67
2022/06/16 03:26:03;;;;;;;8.20;4.83;;;;;;;13.33;67.13;100615.78;5059406;28;20476;-67
2022/06/16 03:28:30;;;;;;;6.93;4.77;;;;;;;13.28;67.55;100623.44;5059321;28;20818;-67
2022/06/16 03:30:56;;;;;;;5.93;4.83;;;;;;;13.23;67.81;100624.84;5059083;28;20488;-67
2022/06/16 03:33:23;;;;;;;7.43;4.23;;;;;;;13.24;68.08;100622.00;5059403;28;20461;-67
2022/06/16 03:35:51;;;;;;;4.80;3.90;;;;;;;13.34;67.79;100635.44;5059284;28;20484;-68
2022/06/16 03:38:22;;;;;;;7.43;4.77;;;;;;;13.36;67.58;100625.38;5059033;28;20493;-67
2022/06/16 03:40:49;;;;;;;10.37;4.80;;;;;;;13.34;67.66;100624.69;5059610;28;20469;-66
2022/06/16 03:43:15;;;;;;;5.93;4.63;;;;;;;13.48;67.62;100634.09;5059950;28;20441;-66
2022/06/16 03:45:42;;;;;;;6.50;4.90;;;;;;;13.59;67.46;100643.78;5058315;28;20484;-66
2022/06/16 03:48:10;;;;;;;7.70;5.27;;;;;;;13.62;67.08;100646.16;5059346;28;20437;-68
2022/06/16 03:50:36;;;;;;;9.20;5.50;;;;;;;13.67;66.55;100654.63;5059279;28;20461;-67
2022/06/16 03:53:04;;;;;;;8.43;4.80;;;;;;;13.55;67.08;100645.91;5059209;28;20507;-67
2022/06/16 03:55:31;;;;;;;6.20;4.97;;;;;;;13.52;67.78;100662.31;5058721;28;20496;-67
2022/06/16 03:57:58;;;;;;;8.70;5.43;;;;;;;13.40;67.68;100667.03;5059666;28;20436;-68
2022/06/16 04:00:25;;;;;;;5.63;4.60;;;;;;;13.62;67.34;100667.66;5057960;28;20479;-67
2022/06/16 04:03:59;;;;;;;11.67;5.13;;;;;;;13.75;66.70;100669.00;5059981;28;20473;-67
2022/06/16 04:05:40;;;;;;;6.33;4.73;;;;;;;14.03;66.06;100671.63;5058390;28;20480;-68
2022/06/16 04:08:10;;;;;;;16.37;5.90;;;;;;;14.02;65.60;100667.25;5059356;28;20468;-67
2022/06/16 04:10:37;;;;;;;8.87;5.63;;;;;;;14.44;64.87;100676.53;5058185;28;20491;-67
2022/06/16 04:13:05;;;;;;;10.37;5.50;;;;;;;14.57;64.22;100681.53;5059532;28;20433;-66
2022/06/16 04:15:31;;;;;;;8.33;4.70;;;;;;;14.60;63.79;100683.91;5058236;28;20498;-67
2022/06/16 04:17:58;;;;;;;5.27;4.40;;;;;;;14.53;63.76;100697.16;5058636;28;20433;-67
2022/06/16 04:20:25;;;;;;;6.93;4.07;;;;;;;14.55;63.96;100692.44;5058700;28;20456;-66
2022/06/16 04:22:52;;;;;;;9.20;5.20;;;;;;;14.53;64.02;100707.03;5059144;28;20488;-66
2022/06/16 04:25:22;;;;;;;10.07;5.57;;;;;;;14.86;63.10;100710.88;5059291;28;20467;-66
2022/06/16 04:27:50;;;;;;;8.10;4.77;;;;;;;14.84;63.01;100702.09;5062888;28;20448;-66
2022/06/16 04:30:18;;;;;;;6.40;4.53;;;;;;;14.71;63.58;100709.75;5061772;28;20480;-66
2022/06/16 04:32:45;;;;;;;6.77;4.47;;;;;;;14.92;63.31;100710.25;5063330;28;20478;-66
2022/06/16 04:35:12;;;;;;;6.07;3.80;;;;;;;15.06;62.51;100720.44;5062814;28;20467;-66
2022/06/16 04:37:38;;;;;;;8.20;4.43;;;;;;;15.00;62.71;100718.38;5062234;28;20460;-67
2022/06/16 04:40:06;;;;;;;4.93;4.13;;;;;;;15.09;63.51;100723.84;5062502;28;20512;-66
2022/06/16 04:42:34;;;;;;;7.37;4.60;;;;;;;15.13;63.33;100719.81;5050851;28;21045;-67
2022/06/16 04:45:01;;;;;;;4.93;3.90;;;;;;;15.21;62.64;100712.63;5062074;28;20437;-67
2022/06/16 04:47:28;;;;;;;5.93;3.97;;;;;;;15.23;62.80;100720.53;5061964;28;20477;-65
2022/06/16 04:49:54;;;;;;;4.03;3.63;;;;;;;15.28;62.48;100720.91;5062736;28;20516;-65
2022/06/16 04:52:21;;;;;;;6.37;4.00;;;;;;;15.97;60.77;100723.56;5061365;28;20515;-66
2022/06/16 04:54:49;;;;;;;5.97;4.47;;;;;;;15.92;61.06;100736.69;5062677;28;20464;-66
2022/06/16 04:57:16;;;;;;;7.77;4.43;;;;;;;16.37;59.67;100743.59;5062213;28;20547;-66
2022/06/16 04:59:44;;;;;;;7.90;3.80;;;;;;;18.00;55.89;100733.53;5062607;28;20434;-68
2022/06/16 05:02:10;;;;;;;8.10;3.63;;;;;;;19.56;50.50;100732.22;5062022;28;20484;-68
2022/06/16 05:04:39;;;;;;;4.30;3.20;;;;;;;21.16;45.73;100724.91;5062621;28;20483;-68
2022/06/16 05:07:06;;;;;;;4.67;3.00;;;;;;;20.93;45.20;100727.03;5062059;28;21298;-68
2022/06/16 05:09:33;;;;;;;4.97;3.30;;;;;;;21.38;45.21;100733.00;5061361;28;20895;-68
2022/06/16 05:11:59;;;;;;;3.87;2.87;;;;;;;22.01;43.38;100730.16;5061971;28;20515;-67
2022/06/16 05:14:26;;;;;;;6.60;2.83;;;;;;;21.11;44.64;100730.13;5061855;28;20436;-66
2022/06/16 05:16:55;;;;;;;5.23;2.87;;;;;;;18.63;50.96;100734.28;5060933;28;20963;-67
2022/06/16 05:19:23;;;;;;;4.77;2.70;;;;;;;18.00;53.99;100732.66;5062361;28;20457;-68
2022/06/16 05:21:49;;;;;;;7.10;3.33;;;;;;;18.26;53.55;100743.16;5060859;28;20472;-67
2022/06/16 05:24:16;;;;;;;4.10;2.90;;;;;;;17.76;55.03;100749.81;5061684;28;20542;-67
2022/06/16 05:26:44;;;;;;;5.77;3.10;;;;;;;17.98;54.25;100754.47;5061182;28;20947;-67
2022/06/16 05:29:11;;;;;;;5.63;2.90;;;;;;;17.26;56.80;100763.50;5061926;28;20453;-67
2022/06/16 05:31:38;;;;;;;6.30;2.70;;;;;;;17.61;55.37;100758.66;5060861;28;20487;-68
2022/06/16 05:34:06;;;;;;;4.13;2.70;;;;;;;17.00;56.78;100763.72;5062288;28;20505;-68
2022/06/16 05:36:33;;;;;;;4.33;2.80;;;;;;;17.03;58.08;100770.59;5060039;28;20480;-66
2022/06/16 05:39:00;;;;;;;5.50;2.73;;;;;;;16.28;59.37;100766.97;5060529;28;20511;-67
2022/06/16 05:41:26;;;;;;;3.70;3.00;;;;;;;16.90;59.22;100768.44;5060794;28;20476;-68
2022/06/16 05:43:53;;;;;;;3.80;2.63;;;;;;;17.31;57.17;100766.53;5061699;28;20449;-66
2022/06/16 05:46:22;;;;;;;3.90;3.03;;;;;;;16.98;58.42;100765.75;5060013;28;20515;-65
2022/06/16 05:48:48;;;;;;;4.40;2.70;;;;;;;17.40;57.59;100769.22;5061778;28;20494;-66
2022/06/16 05:51:17;;;;;;;5.97;2.83;;;;;;;17.76;55.91;100774.16;5060816;28;20489;-65
2022/06/16 05:53:44;;;;;;;5.20;3.33;;;;;;;18.36;54.09;100765.44;5060694;28;20453;-65
2022/06/16 05:56:11;;;;;;;3.80;2.50;;;;;;;18.35;53.89;100779.16;5060098;28;20508;-66
2022/06/16 05:58:38;;;;;;;4.97;2.63;;;;;;;18.33;53.90;100784.75;5061232;28;20442;-66
2022/06/16 06:01:05;;;;;;;4.23;2.90;;;;;;;18.34;53.88;100788.31;5060246;28;20476;-66
2022/06/16 06:03:31;;;;;;;3.63;3.10;;;;;;;18.12;53.92;100788.06;5061415;28;20445;-65
2022/06/16 06:05:59;;;;;;;3.57;2.63;;;;;;;19.15;52.65;100786.88;5053748;28;20473;-65
2022/06/16 06:16:44;;;;;;;3.00;2.10;;;;;;;21.47;44.79;100788.13;5053673;28;20483;-66
2022/06/16 06:22:02;;;;;;;4.13;2.47;;;;;;;22.65;42.00;100783.38;5059455;28;20488;-67
2022/06/16 06:24:32;;;;;;;3.23;1.70;;;;;;;22.64;40.14;100794.50;5060179;28;20567;-66
2022/06/16 06:27:04;;;;;;;5.63;1.97;;;;;;;20.91;45.34;100787.03;5060095;28;20496;-67
2022/06/16 06:29:30;;;;;;;3.53;1.53;;;;;;;20.32;47.01;100786.19;5060353;28;20840;-65
2022/06/16 06:31:58;;;;;;;3.43;2.07;;;;;;;20.67;45.37;100788.25;5059697;28;20512;-70
2022/06/16 06:34:25;;;;;;;3.00;1.37;;;;;;;18.96;48.80;100777.38;5060799;28;20432;-69
2022/06/16 06:36:51;;;;;;;2.53;1.50;;;;;;;19.34;47.21;100796.34;5050703;28;20515;-69
2022/06/16 06:39:18;;;;;;;4.83;1.57;;;;;;;19.53;47.83;100786.00;5058753;28;20456;-69
2022/06/16 06:41:46;;;;;;;1.90;1.07;;;;;;;19.82;45.09;100787.03;5059277;28;20511;-69
2022/06/16 06:44:13;;;;;;;2.70;1.50;;;;;;;21.40;41.76;100810.66;5059962;28;20971;-69
2022/06/16 06:46:39;;;;;;;4.10;1.20;;;;;;;21.86;41.39;100803.00;5058434;28;20473;-71
2022/06/16 06:49:06;;;;;;;3.00;1.20;;;;;;;19.59;45.76;100804.22;5059984;28;20449;-69
2022/06/16 06:51:33;;;;;;;1.60;0.93;;;;;;;23.45;37.69;100802.53;5056707;28;20484;-68
2022/06/16 06:54:00;;;;;;;3.80;1.30;;;;;;;23.20;38.58;100809.69;5057389;28;20495;-67
2022/06/16 06:56:27;;;;;;;3.73;1.30;;;;;;;24.32;36.52;100806.88;5059021;28;20983;-66
2022/06/16 06:58:56;;;;;;;2.47;1.13;;;;;;;23.80;36.06;100812.28;5059339;28;20981;-64
2022/06/16 07:01:22;;;;;;;2.83;1.40;;;;;;;22.27;39.28;100821.19;5058233;28;20531;-66
2022/06/16 07:03:52;;;;;;;9.20;1.60;;;;;;;24.00;36.25;100817.75;5059169;28;20479;-67
2022/06/16 07:06:20;;;;;;;1.40;0.80;;;;;;;23.53;36.91;100819.72;5048847;28;20481;-68
2022/06/16 07:08:47;;;;;;;1.60;1.13;;;;;;;22.13;39.31;100826.59;5039116;28;20437;-70
2022/06/16 07:11:14;;;;;;;2.60;0.93;;;;;;;24.39;35.87;100824.94;5037977;28;20481;-70
2022/06/16 07:13:41;;;;;;;3.23;0.83;;;;;;;26.75;31.44;100828.84;5039538;28;20480;-68
2022/06/16 07:16:10;;;;;;;3.80;1.00;;;;;;;23.61;35.65;100828.53;5038486;28;20470;-70
2022/06/16 07:18:37;;;;;;;2.60;1.00;;;;;;;22.75;37.53;100830.16;5039631;28;20445;-70
2022/06/16 07:21:05;;;;;;;2.57;1.00;;;;;;;22.13;38.77;100832.03;5039326;28;20477;-69
2022/06/16 07:23:31;;;;;;;3.27;1.77;;;;;;;22.71;37.58;100818.00;5037108;28;20820;-69
2022/06/16 07:25:58;;;;;;;2.17;0.90;;;;;;;25.38;33.37;100827.25;5035400;28;21471;-71
2022/06/16 07:28:25;;;;;;;2.33;1.00;;;;;;;23.90;35.93;100829.09;5038827;28;20442;-70
2022/06/16 07:30:52;;;;;;;1.97;1.00;;;;;;;24.36;35.02;100833.56;5038163;28;20688;-70
2022/06/16 07:33:20;;;;;;;1.87;0.70;;;;;;;27.66;30.20;100842.31;5038395;28;20521;-71
2022/06/16 07:35:46;;;;;;;2.77;0.90;;;;;;;27.30;29.58;100841.47;5043330;28;20843;-70
2022/06/16 07:38:13;;;;;;;1.97;0.90;;;;;;;27.99;28.84;100847.22;5037109;28;20516;-70
2022/06/16 07:40:40;;;;;;;2.73;1.13;;;;;;;29.17;27.33;100843.16;5041223;28;20500;-70
2022/06/16 07:43:07;;;;;;;2.73;0.90;;;;;;;29.59;26.35;100848.22;5039770;28;20464;-71
2022/06/16 07:45:34;;;;;;;2.40;1.07;;;;;;;28.42;27.42;100847.81;5037203;28;20489;-69
2022/06/16 07:48:03;;;;;;;2.20;1.07;;;;;;;27.74;29.64;100849.34;5043631;28;20481;-70
2022/06/16 07:50:31;;;;;;;2.47;1.13;;;;;;;29.37;26.33;100856.41;5038290;28;20587;-69
2022/06/16 07:52:58;;;;;;;2.03;1.13;;;;;;;26.87;30.16;100867.25;5038315;28;21010;-69
2022/06/16 07:55:25;;;;;;;1.30;0.77;;;;;;;28.41;27.48;100867.31;5038097;28;20481;-70
2022/06/16 07:57:52;;;;;;;2.30;0.90;;;;;;;24.98;31.92;100874.03;5038928;28;20446;-70
2022/06/16 08:00:22;;;;;;;3.93;0.80;;;;;;;24.18;33.36;100860.75;5039123;28;20473;-70
2022/06/16 08:02:49;;;;;;;1.80;0.87;;;;;;;26.83;29.53;100855.09;5045182;28;20869;-70
2022/06/16 08:05:16;;;;;;;2.33;1.00;;;;;;;26.89;28.08;100859.66;5041144;28;20453;-70
2022/06/16 08:07:45;;;;;;;2.33;0.90;;;;;;;26.36;29.51;100854.88;5045690;28;20615;-69
2022/06/16 08:10:14;;;;;;;1.90;1.00;;;;;;;27.05;28.81;100855.38;5031787;28;20503;-70
2022/06/16 08:12:41;;;;;;;2.33;0.93;;;;;;;26.31;29.33;100872.00;5039789;28;20933;-70
2022/06/16 08:15:09;;;;;;;2.50;0.90;;;;;;;25.66;32.13;100867.00;5037762;28;20465;-70
2022/06/16 08:17:38;;;;;;;1.73;0.93;;;;;;;26.44;31.62;100863.63;5044675;28;20843;-70
2022/06/16 08:20:06;;;;;;;2.40;1.17;;;;;;;24.42;32.60;100870.94;5041559;28;20465;-68
2022/06/16 08:22:33;;;;;;;3.07;1.13;;;;;;;25.25;32.59;100868.38;5042200;28;20892;-69
2022/06/16 08:25:01;;;;;;;2.60;1.23;;;;;;;25.37;31.74;100869.34;5041201;28;20484;-70
2022/06/16 08:27:31;;;;;;;2.10;1.33;;;;;;;27.38;29.49;100859.53;5040233;28;20471;-70
2022/06/16 08:29:59;;;;;;;2.87;1.03;;;;;;;24.48;32.88;100863.78;5039070;28;20503;-69
2022/06/16 08:32:26;;;;;;;2.43;1.30;;;;;;;24.98;33.31;100866.69;5033377;28;20473;-69
2022/06/16 08:34:52;;;;;;;1.67;1.23;;;;;;;28.08;28.90;100872.41;5040951;28;20851;-70
2022/06/16 08:37:21;;;;;;;2.40;1.60;;;;;;;29.01;28.06;100874.22;5040284;28;20477;-73
2022/06/16 08:39:48;;;;;;;2.17;1.07;;;;;;;28.72;28.03;100877.03;5050123;28;20494;-69
2022/06/16 08:42:22;;;;;;;4.27;1.57;;;;;;;26.19;31.72;100877.41;5055225;28;21150;-70
2022/06/16 08:44:55;;;;;;;4.13;1.40;;;;;;;26.55;31.29;100872.13;5059811;28;20456;-71
2022/06/16 08:47:27;;;;;;;2.20;1.20;;;;;;;26.68;31.75;100891.16;5059112;28;20534;-70
2022/06/16 08:49:59;;;;;;;3.73;1.27;;;;;;;27.24;31.80;100887.16;5058688;28;21094;-70
2022/06/16 08:52:34;;;;;;;3.30;1.23;;;;;;;28.27;28.96;100902.50;5060247;28;20484;-69
2022/06/16 08:55:07;;;;;;;3.03;1.30;;;;;;;28.20;28.68;100897.13;5059460;28;20478;-69
2022/06/16 08:57:43;;;;;;;1.93;1.07;;;;;;;24.80;32.72;100894.75;5060207;28;20897;-72
2022/06/16 09:00:14;;;;;;;2.00;0.87;;;;;;;26.01;31.40;100893.88;5058949;28;20464;-69
2022/06/16 09:02:46;;;;;;;2.90;1.10;;;;;;;24.96;32.66;100889.81;5052797;28;20490;-69
2022/06/16 09:05:23;;;;;;;2.50;1.10;;;;;;;26.90;30.34;100888.75;5047042;28;20499;-69
2022/06/16 09:07:57;;;;;;;3.30;0.90;;;;;;;28.02;27.75;100884.38;5058366;28;20831;-69
2022/06/16 09:10:33;;;;;;;2.37;1.00;;;;;;;27.91;27.80;100883.31;5060124;28;20453;-69
2022/06/16 09:13:17;;;;;;;1.60;0.83;;;;;;;28.70;26.26;100881.94;5060296;28;20441;-69
2022/06/16 09:15:50;;;;;;;2.77;0.90;;;;;;;28.96;25.75;100882.41;5060621;28;20464;-69
2022/06/16 09:18:40;;;;;;;2.17;0.97;;;;;;;29.93;24.91;100881.28;5041535;28;20567;-69
2022/06/16 09:21:13;;;;;;;2.37;1.00;;;;;;;29.23;25.87;100877.13;5038433;28;20500;-70
2022/06/16 09:23:53;;;;;;;5.00;0.93;;;;;;;26.83;28.65;100893.50;5050042;28;20519;-69
2022/06/16 09:26:22;;;;;;;2.67;0.87;;;;;;;28.34;27.72;100875.69;5061009;28;20570;-69
2022/06/16 09:28:54;;;;;;;1.60;0.80;;;;;;;28.93;26.03;100873.56;5061988;28;20429;-69
2022/06/16 09:31:24;;;;;;;3.30;1.07;;;;;;;29.13;25.14;100875.03;5060139;28;20488;-68
2022/06/16 09:33:54;;;;;;;1.70;0.90;;;;;;;27.72;27.57;100871.56;5061497;28;20437;-67
2022/06/16 09:36:24;;;;;;;2.30;0.83;;;;;;;24.75;31.90;100883.63;5061079;28;20966;-69
2022/06/16 09:38:54;;;;;;;2.07;0.80;;;;;;;26.11;30.03;100892.25;5059549;28;20561;-69
2022/06/16 09:44:13;;;;;;;2.00;0.60;;;;;;;27.51;29.49;100877.69;5061077;28;20508;-69
2022/06/16 09:46:43;;;;;;;2.47;0.83;;;;;;;28.86;27.01;100883.88;5058804;28;20473;-69
2022/06/16 09:49:13;;;;;;;2.63;0.87;;;;;;;27.91;28.59;100883.31;5061496;28;20460;-69
2022/06/16 09:51:45;;;;;;;1.70;0.73;;;;;;;27.30;27.65;100877.16;5060746;28;20508;-69
2022/06/16 09:54:16;;;;;;;2.40;0.90;;;;;;;26.38;28.43;100889.19;5059650;28;20453;-69
2022/06/16 09:56:48;;;;;;;3.37;1.10;;;;;;;28.57;26.43;100888.56;5060815;28;20473;-70
2022/06/16 09:59:21;;;;;;;1.13;0.70;;;;;;;27.05;28.36;100889.16;5061395;28;20456;-69
2022/06/16 10:01:50;;;;;;;2.07;0.80;;;;;;;28.53;26.08;100882.69;5060298;28;20476;-69
2022/06/16 10:04:16;;;;;;;2.20;0.70;;;;;;;26.48;28.38;100897.72;5061051;28;20479;-69
2022/06/16 10:06:56;;;;;;;3.93;0.60;;;;;;;28.36;27.23;100890.88;5059293;28;20477;-68
2022/06/16 10:09:29;;;;;;;1.47;0.83;;;;;;;28.71;26.87;100900.09;5059724;28;20488;-70
2022/06/16 10:12:03;;;;;;;3.10;0.83;;;;;;;28.45;26.23;100894.06;5060185;28;21092;-70
2022/06/16 10:14:38;;;;;;;2.07;0.77;;;;;;;29.63;24.77;100901.75;5060421;28;20437;-68
2022/06/16 10:17:07;;;;;;;2.13;0.70;;;;;;;27.11;28.13;100901.09;5059039;28;20522;-69
2022/06/16 10:19:37;;;;;;;1.57;0.67;;;;;;;28.81;26.39;100916.00;5060744;28;20862;-68
2022/06/16 10:22:05;;;;;;;2.80;0.90;;;;;;;29.04;24.53;100912.28;5060309;28;20472;-69
2022/06/16 10:24:35;;;;;;;3.27;1.10;;;;;;;26.43;28.92;100926.91;5057896;28;20838;-69
2022/06/16 10:27:02;;;;;;;4.73;1.10;;;;;;;26.18;29.21;100922.34;5059814;28;20503;-69
2022/06/16 10:29:31;;;;;;;3.23;1.37;;;;;;;28.34;26.64;100922.44;5060695;28;20464;-68
2022/06/16 10:32:00;;;;;;;2.37;1.27;;;;;;;25.35;29.95;100931.72;5059716;28;20556;-69
2022/06/16 10:34:36;;;;;;;1.80;0.60;;;;;;;26.26;29.44;100927.50;5060563;28;20471;-69
2022/06/16 10:37:13;;;;;;;1.30;0.70;;;;;;;28.28;26.15;100929.75;5060075;28;20526;-70
2022/06/16 10:39:45;;;;;;;3.97;1.00;;;;;;;28.58;25.86;100923.25;5058828;28;20448;-68
2022/06/16 10:42:18;;;;;;;3.37;1.10;;;;;;;29.08;25.79;100928.06;5060040;28;20468;-70
2022/06/16 10:44:54;;;;;;;2.97;1.03;;;;;;;27.19;27.21;100941.09;5059933;28;20440;-70
2022/06/16 10:47:26;;;;;;;2.10;0.90;;;;;;;26.54;27.84;100941.75;5059269;28;20472;-70
2022/06/16 10:49:53;;;;;;;2.77;1.13;;;;;;;27.45;27.28;100947.25;5060277;28;20453;-68
2022/06/16 10:52:27;;;;;;;3.17;1.10;;;;;;;27.58;26.72;100953.38;5059510;28;20512;-68
2022/06/16 10:55:00;;;;;;;3.37;1.10;;;;;;;28.51;25.78;100961.03;5059652;28;20480;-69
2022/06/16 10:57:29;;;;;;;1.90;1.10;;;;;;;28.38;25.87;100958.56;5059804;28;20521;-70
2022/06/16 10:59:59;;;;;;;2.90;1.07;;;;;;;28.90;26.07;100958.53;5058879;28;20958;-69
2022/06/16 11:02:29;;;;;;;1.47;0.90;;;;;;;26.01;27.72;100970.59;5059341;28;20873;-69
2022/06/16 11:04:58;;;;;;;1.70;1.03;;;;;;;26.26;30.20;100965.03;5060062;28;20453;-68
2022/06/16 11:07:29;;;;;;;6.87;1.17;;;;;;;27.52;27.29;100962.59;5058393;28;20535;-68
2022/06/16 11:10:03;;;;;;;2.37;1.43;;;;;;;27.87;28.57;100970.03;5059052;28;20456;-68
2022/06/16 11:12:32;;;;;;;3.00;1.30;;;;;;;28.29;27.27;100963.59;5058904;28;20575;-69
2022/06/16 11:15:03;;;;;;;3.60;1.50;;;;;;;29.19;26.24;100959.41;5058918;28;20488;-69
2022/06/16 11:17:37;;;;;;;3.40;1.20;;;;;;;27.01;27.94;100959.31;5059307;28;20804;-69
2022/06/16 11:20:08;;;;;;;3.40;1.23;;;;;;;26.78;29.51;100948.22;5059886;28;20456;-69
2022/06/16 11:22:39;;;;;;;2.57;1.20;;;;;;;27.58;27.68;100944.31;5057487;28;20468;-68
2022/06/16 11:25:11;;;;;;;2.47;1.10;;;;;;;25.72;31.93;100954.56;5059290;28;20476;-69
2022/06/16 11:27:41;;;;;;;3.00;1.23;;;;;;;26.85;29.53;100952.53;5059480;28;20473;-69
2022/06/16 11:30:37;;;;;;;2.20;1.20;;;;;;;27.39;29.04;100944.41;5058249;28;20462;-69
2022/06/16 11:33:07;;;;;;;4.13;1.20;;;;;;;27.52;30.52;100950.78;5059781;28;20636;-74
2022/06/16 11:35:40;;;;;;;3.93;1.30;;;;;;;26.69;29.88;100958.66;5060525;28;20484;-69
2022/06/16 11:38:17;;;;;;;2.37;1.77;;;;;;;27.20;28.45;100956.50;5062845;28;20448;-68
2022/06/16 11:40:47;;;;;;;6.80;1.70;;;;;;;27.57;28.50;100953.66;5063046;28;20468;-68
2022/06/16 11:43:27;;;;;;;3.40;1.40;;;;;;;27.54;28.02;100952.19;5063098;28;20960;-74
2022/06/16 11:45:57;;;;;;;2.50;1.40;;;;;;;26.10;29.53;100972.78;5061361;28;20511;-68
2022/06/16 11:48:32;;;;;;;4.20;1.40;;;;;;;25.75;30.26;100975.19;5064102;28;20625;-69
2022/06/16 11:51:09;;;;;;;2.87;1.60;;;;;;;26.97;29.23;100973.72;5063070;28;20830;-68
2022/06/16 11:53:48;;;;;;;2.63;1.40;;;;;;;26.70;29.94;100979.56;5062116;28;20453;-69
2022/06/16 11:56:34;;;;;;;2.67;2.03;;;;;;;27.85;29.31;100980.44;5063100;28;20476;-69